sensor_id;sensor_type;location;lat;lon;timestamp;P1;durP1;ratioP1;P2;durP2;ratioP2
17771;SDS011;9010;32.624;-96.938;2022-08-19T00:01:20;1.10;;;1.10;;
17771;SDS011;9010;32.624;-96.938;2022-08-19T00:03:49;1.23;;;1.23;;
17771;SDS011;9010;32.624;-96.938;2022-08-19T00:06:18;1.45;;;1.45;;
17771;SDS011;9010;32.624;-96.938;2022-08-19T00:08:46;1.27;;;1.27;;
17771;SDS011;9010;32.624;-96.938;2022-08-19T00:11:16;2.35;;;1.80;;
17771;SDS011;9010;32.624;-96.938;2022-08-19T00:13:47;1.23;;;1.23;;
17771;SDS011;9010;32.624;-96.938;2022-08-19T00:16:16;1.55;;;1.55;;
17771;SDS011;9010;32.624;-96.938;2022-08-19T00:18:46;1.10;;;1.10;;
17771;SDS011;9010;32.624;-96.938;2022-08-19T00:21:14;1.40;;;1.40;;
17771;SDS011;9010;32.624;-96.938;2022-08-19T00:23:43;1.23;;;1.23;;
17771;SDS011;9010;32.624;-96.938;2022-08-19T00:26:11;1.40;;;1.40;;
17771;SDS011;9010;32.624;-96.938;2022-08-19T00:28:40;0.80;;;0.80;;
17771;SDS011;9010;32.624;-96.938;2022-08-19T00:31:10;2.03;;;1.33;;
17771;SDS011;9010;32.624;-96.938;2022-08-19T00:33:38;1.20;;;1.20;;
17771;SDS011;9010;32.624;-96.938;2022-08-19T00:36:07;1.50;;;1.50;;
17771;SDS011;9010;32.624;-96.938;2022-08-19T00:38:36;3.13;;;1.88;;
17771;SDS011;9010;32.624;-96.938;2022-08-19T00:41:06;1.52;;;1.52;;
17771;SDS011;9010;32.624;-96.938;2022-08-19T00:43:35;2.03;;;2.03;;
17771;SDS011;9010;32.624;-96.938;2022-08-19T00:46:05;1.70;;;1.70;;
17771;SDS011;9010;32.624;-96.938;2022-08-19T00:48:35;1.80;;;1.80;;
17771;SDS011;9010;32.624;-96.938;2022-08-19T00:51:04;2.10;;;2.03;;
17771;SDS011;9010;32.624;-96.938;2022-08-19T00:53:33;1.58;;;1.58;;
17771;SDS011;9010;32.624;-96.938;2022-08-19T00:56:01;2.00;;;1.90;;
17771;SDS011;9010;32.624;-96.938;2022-08-19T00:58:32;1.38;;;1.38;;
17771;SDS011;9010;32.624;-96.938;2022-08-19T01:01:02;1.58;;;1.48;;
17771;SDS011;9010;32.624;-96.938;2022-08-19T01:03:33;1.40;;;1.40;;
17771;SDS011;9010;32.624;-96.938;2022-08-19T01:06:03;1.48;;;1.48;;
17771;SDS011;9010;32.624;-96.938;2022-08-19T01:08:32;1.55;;;1.55;;
17771;SDS011;9010;32.624;-96.938;2022-08-19T01:11:01;1.20;;;1.20;;
17771;SDS011;9010;32.624;-96.938;2022-08-19T01:13:30;1.70;;;1.70;;
17771;SDS011;9010;32.624;-96.938;2022-08-19T01:16:02;1.63;;;1.63;;
17771;SDS011;9010;32.624;-96.938;2022-08-19T01:18:32;1.45;;;1.35;;
17771;SDS011;9010;32.624;-96.938;2022-08-19T01:21:08;1.83;;;1.83;;
17771;SDS011;9010;32.624;-96.938;2022-08-19T01:23:42;1.42;;;1.42;;
17771;SDS011;9010;32.624;-96.938;2022-08-19T01:26:11;1.80;;;1.70;;
17771;SDS011;9010;32.624;-96.938;2022-08-19T01:28:42;1.65;;;1.65;;
17771;SDS011;9010;32.624;-96.938;2022-08-19T01:31:12;1.80;;;1.80;;
17771;SDS011;9010;32.624;-96.938;2022-08-19T01:33:43;1.92;;;1.83;;
17771;SDS011;9010;32.624;-96.938;2022-08-19T01:36:14;1.38;;;1.38;;
17771;SDS011;9010;32.624;-96.938;2022-08-19T01:38:50;2.08;;;2.08;;
17771;SDS011;9010;32.624;-96.938;2022-08-19T01:41:19;1.60;;;1.60;;
17771;SDS011;9010;32.624;-96.938;2022-08-19T01:43:49;2.78;;;2.67;;
17771;SDS011;9010;32.624;-96.938;2022-08-19T01:46:18;2.05;;;2.05;;
17771;SDS011;9010;32.624;-96.938;2022-08-19T01:48:47;1.65;;;1.65;;
17771;SDS011;9010;32.624;-96.938;2022-08-19T01:51:15;1.73;;;1.73;;
17771;SDS011;9010;32.624;-96.938;2022-08-19T01:53:45;1.80;;;1.80;;
17771;SDS011;9010;32.624;-96.938;2022-08-19T01:56:16;1.50;;;1.50;;
17771;SDS011;9010;32.624;-96.938;2022-08-19T01:58:46;2.53;;;2.42;;
17771;SDS011;9010;32.624;-96.938;2022-08-19T02:01:17;2.40;;;2.30;;
17771;SDS011;9010;32.624;-96.938;2022-08-19T02:03:45;1.38;;;1.38;;
17771;SDS011;9010;32.624;-96.938;2022-08-19T02:06:14;1.73;;;1.67;;
17771;SDS011;9010;32.624;-96.938;2022-08-19T02:08:43;1.95;;;1.90;;
17771;SDS011;9010;32.624;-96.938;2022-08-19T02:11:20;1.45;;;1.45;;
17771;SDS011;9010;32.624;-96.938;2022-08-19T02:13:51;2.00;;;2.00;;
17771;SDS011;9010;32.624;-96.938;2022-08-19T02:16:20;2.35;;;2.15;;
17771;SDS011;9010;32.624;-96.938;2022-08-19T02:18:48;1.73;;;1.63;;
17771;SDS011;9010;32.624;-96.938;2022-08-19T02:21:18;1.73;;;1.73;;
17771;SDS011;9010;32.624;-96.938;2022-08-19T02:23:47;1.83;;;1.83;;
17771;SDS011;9010;32.624;-96.938;2022-08-19T02:26:16;1.48;;;1.48;;
17771;SDS011;9010;32.624;-96.938;2022-08-19T02:28:46;1.75;;;1.75;;
17771;SDS011;9010;32.624;-96.938;2022-08-19T02:31:16;2.55;;;2.45;;
17771;SDS011;9010;32.624;-96.938;2022-08-19T02:33:49;2.47;;;2.38;;
17771;SDS011;9010;32.624;-96.938;2022-08-19T02:36:18;1.85;;;1.85;;
17771;SDS011;9010;32.624;-96.938;2022-08-19T02:38:47;1.85;;;1.83;;
17771;SDS011;9010;32.624;-96.938;2022-08-19T02:41:15;1.52;;;1.52;;
17771;SDS011;9010;32.624;-96.938;2022-08-19T02:43:46;2.63;;;2.53;;
17771;SDS011;9010;32.624;-96.938;2022-08-19T02:46:15;1.92;;;1.92;;
17771;SDS011;9010;32.624;-96.938;2022-08-19T02:48:46;2.38;;;2.28;;
17771;SDS011;9010;32.624;-96.938;2022-08-19T02:51:16;1.70;;;1.70;;
17771;SDS011;9010;32.624;-96.938;2022-08-19T02:53:46;1.70;;;1.70;;
17771;SDS011;9010;32.624;-96.938;2022-08-19T02:56:14;1.45;;;1.45;;
17771;SDS011;9010;32.624;-96.938;2022-08-19T02:58:43;1.75;;;1.65;;
17771;SDS011;9010;32.624;-96.938;2022-08-19T03:01:18;2.05;;;1.98;;
17771;SDS011;9010;32.624;-96.938;2022-08-19T03:03:48;1.92;;;1.83;;
17771;SDS011;9010;32.624;-96.938;2022-08-19T03:06:16;1.23;;;1.23;;
17771;SDS011;9010;32.624;-96.938;2022-08-19T03:08:46;1.73;;;1.73;;
17771;SDS011;9010;32.624;-96.938;2022-08-19T03:11:15;2.53;;;2.22;;
17771;SDS011;9010;32.624;-96.938;2022-08-19T03:13:45;1.92;;;1.92;;
17771;SDS011;9010;32.624;-96.938;2022-08-19T03:16:16;1.25;;;1.25;;
17771;SDS011;9010;32.624;-96.938;2022-08-19T03:18:45;1.65;;;1.65;;
17771;SDS011;9010;32.624;-96.938;2022-08-19T03:21:15;2.22;;;2.13;;
17771;SDS011;9010;32.624;-96.938;2022-08-19T03:23:44;1.20;;;1.20;;
17771;SDS011;9010;32.624;-96.938;2022-08-19T03:26:12;2.10;;;1.98;;
17771;SDS011;9010;32.624;-96.938;2022-08-19T03:28:41;1.00;;;1.00;;
17771;SDS011;9010;32.624;-96.938;2022-08-19T03:31:11;3.40;;;2.00;;
17771;SDS011;9010;32.624;-96.938;2022-08-19T03:33:42;1.98;;;1.98;;
17771;SDS011;9010;32.624;-96.938;2022-08-19T03:36:12;1.15;;;1.15;;
17771;SDS011;9010;32.624;-96.938;2022-08-19T03:38:43;6.00;;;3.10;;
17771;SDS011;9010;32.624;-96.938;2022-08-19T03:41:14;1.20;;;1.20;;
17771;SDS011;9010;32.624;-96.938;2022-08-19T03:43:45;1.33;;;1.33;;
17771;SDS011;9010;32.624;-96.938;2022-08-19T03:46:15;1.55;;;1.55;;
17771;SDS011;9010;32.624;-96.938;2022-08-19T03:48:48;1.23;;;1.23;;
17771;SDS011;9010;32.624;-96.938;2022-08-19T03:51:20;1.75;;;1.75;;
17771;SDS011;9010;32.624;-96.938;2022-08-19T03:53:50;1.08;;;1.08;;
17771;SDS011;9010;32.624;-96.938;2022-08-19T03:56:18;1.55;;;1.55;;
17771;SDS011;9010;32.624;-96.938;2022-08-19T03:58:47;1.50;;;1.50;;
17771;SDS011;9010;32.624;-96.938;2022-08-19T04:01:17;2.15;;;2.10;;
17771;SDS011;9010;32.624;-96.938;2022-08-19T04:03:48;2.58;;;2.47;;
17771;SDS011;9010;32.624;-96.938;2022-08-19T04:06:18;1.88;;;1.88;;
17771;SDS011;9010;32.624;-96.938;2022-08-19T04:08:49;2.78;;;2.58;;
17771;SDS011;9010;32.624;-96.938;2022-08-19T04:11:20;1.17;;;1.17;;
17771;SDS011;9010;32.624;-96.938;2022-08-19T04:13:51;1.67;;;1.67;;
17771;SDS011;9010;32.624;-96.938;2022-08-19T04:16:21;2.67;;;2.58;;
17771;SDS011;9010;32.624;-96.938;2022-08-19T04:18:52;1.83;;;1.83;;
17771;SDS011;9010;32.624;-96.938;2022-08-19T04:21:20;2.53;;;2.35;;
17771;SDS011;9010;32.624;-96.938;2022-08-19T04:23:50;3.55;;;3.28;;
17771;SDS011;9010;32.624;-96.938;2022-08-19T04:26:21;2.63;;;2.53;;
17771;SDS011;9010;32.624;-96.938;2022-08-19T04:28:50;2.83;;;2.72;;
17771;SDS011;9010;32.624;-96.938;2022-08-19T04:31:20;3.40;;;3.13;;
17771;SDS011;9010;32.624;-96.938;2022-08-19T04:33:53;3.03;;;2.83;;
17771;SDS011;9010;32.624;-96.938;2022-08-19T04:36:22;3.67;;;3.47;;
17771;SDS011;9010;32.624;-96.938;2022-08-19T04:38:53;2.33;;;2.22;;
17771;SDS011;9010;32.624;-96.938;2022-08-19T04:41:22;3.90;;;3.70;;
17771;SDS011;9010;32.624;-96.938;2022-08-19T04:44:22;2.35;;;2.20;;
17771;SDS011;9010;32.624;-96.938;2022-08-19T04:46:51;3.15;;;3.05;;
17771;SDS011;9010;32.624;-96.938;2022-08-19T04:49:21;2.92;;;2.83;;
17771;SDS011;9010;32.624;-96.938;2022-08-19T04:51:50;3.13;;;3.03;;
17771;SDS011;9010;32.624;-96.938;2022-08-19T04:54:19;3.25;;;3.13;;
17771;SDS011;9010;32.624;-96.938;2022-08-19T04:56:50;2.65;;;2.58;;
17771;SDS011;9010;32.624;-96.938;2022-08-19T04:59:19;5.15;;;2.92;;
17771;SDS011;9010;32.624;-96.938;2022-08-19T05:01:48;2.22;;;2.13;;
17771;SDS011;9010;32.624;-96.938;2022-08-19T05:04:17;3.40;;;3.28;;
17771;SDS011;9010;32.624;-96.938;2022-08-19T05:06:47;2.05;;;2.05;;
17771;SDS011;9010;32.624;-96.938;2022-08-19T05:09:17;4.65;;;4.35;;
17771;SDS011;9010;32.624;-96.938;2022-08-19T05:11:47;2.55;;;2.45;;
17771;SDS011;9010;32.624;-96.938;2022-08-19T05:14:16;3.28;;;3.08;;
17771;SDS011;9010;32.624;-96.938;2022-08-19T05:16:45;5.00;;;4.38;;
17771;SDS011;9010;32.624;-96.938;2022-08-19T05:19:13;2.70;;;2.60;;
17771;SDS011;9010;32.624;-96.938;2022-08-19T05:22:00;5.07;;;3.40;;
17771;SDS011;9010;32.624;-96.938;2022-08-19T05:24:45;2.33;;;2.22;;
17771;SDS011;9010;32.624;-96.938;2022-08-19T05:27:13;3.00;;;2.83;;
17771;SDS011;9010;32.624;-96.938;2022-08-19T05:29:41;2.60;;;2.50;;
17771;SDS011;9010;32.624;-96.938;2022-08-19T05:32:09;2.40;;;2.30;;
17771;SDS011;9010;32.624;-96.938;2022-08-19T05:34:38;2.55;;;2.45;;
17771;SDS011;9010;32.624;-96.938;2022-08-19T05:37:07;2.65;;;2.28;;
17771;SDS011;9010;32.624;-96.938;2022-08-19T05:39:36;1.35;;;1.35;;
17771;SDS011;9010;32.624;-96.938;2022-08-19T05:42:06;1.52;;;1.52;;
17771;SDS011;9010;32.624;-96.938;2022-08-19T05:44:37;1.70;;;1.67;;
17771;SDS011;9010;32.624;-96.938;2022-08-19T05:47:09;1.67;;;1.63;;
17771;SDS011;9010;32.624;-96.938;2022-08-19T05:49:40;2.05;;;2.05;;
17771;SDS011;9010;32.624;-96.938;2022-08-19T05:52:11;1.75;;;1.67;;
17771;SDS011;9010;32.624;-96.938;2022-08-19T05:54:40;1.75;;;1.75;;
17771;SDS011;9010;32.624;-96.938;2022-08-19T05:57:10;3.25;;;2.00;;
17771;SDS011;9010;32.624;-96.938;2022-08-19T05:59:38;2.17;;;2.08;;
17771;SDS011;9010;32.624;-96.938;2022-08-19T06:02:07;1.55;;;1.52;;
17771;SDS011;9010;32.624;-96.938;2022-08-19T06:04:35;2.13;;;2.03;;
17771;SDS011;9010;32.624;-96.938;2022-08-19T06:07:04;1.40;;;1.40;;
17771;SDS011;9010;32.624;-96.938;2022-08-19T06:09:34;5.00;;;1.90;;
17771;SDS011;9010;32.624;-96.938;2022-08-19T06:12:03;1.73;;;1.67;;
17771;SDS011;9010;32.624;-96.938;2022-08-19T06:14:32;2.17;;;2.10;;
17771;SDS011;9010;32.624;-96.938;2022-08-19T06:17:02;5.28;;;2.17;;
17771;SDS011;9010;32.624;-96.938;2022-08-19T06:19:30;1.73;;;1.73;;
17771;SDS011;9010;32.624;-96.938;2022-08-19T06:21:59;5.55;;;1.95;;
17771;SDS011;9010;32.624;-96.938;2022-08-19T06:24:29;1.30;;;1.30;;
17771;SDS011;9010;32.624;-96.938;2022-08-19T06:26:59;1.88;;;1.77;;
17771;SDS011;9010;32.624;-96.938;2022-08-19T06:29:28;1.52;;;1.52;;
17771;SDS011;9010;32.624;-96.938;2022-08-19T06:31:58;1.90;;;1.85;;
17771;SDS011;9010;32.624;-96.938;2022-08-19T06:34:28;1.08;;;1.08;;
17771;SDS011;9010;32.624;-96.938;2022-08-19T06:36:58;1.33;;;1.33;;
17771;SDS011;9010;32.624;-96.938;2022-08-19T06:39:28;1.70;;;1.70;;
17771;SDS011;9010;32.624;-96.938;2022-08-19T06:42:00;1.75;;;1.75;;
17771;SDS011;9010;32.624;-96.938;2022-08-19T06:44:33;1.23;;;1.23;;
17771;SDS011;9010;32.624;-96.938;2022-08-19T06:47:03;2.42;;;2.10;;
17771;SDS011;9010;32.624;-96.938;2022-08-19T06:49:32;1.15;;;1.15;;
17771;SDS011;9010;32.624;-96.938;2022-08-19T06:52:00;1.75;;;1.65;;
17771;SDS011;9010;32.624;-96.938;2022-08-19T06:54:29;2.45;;;2.35;;
17771;SDS011;9010;32.624;-96.938;2022-08-19T06:56:58;1.23;;;1.23;;
17771;SDS011;9010;32.624;-96.938;2022-08-19T06:59:29;1.55;;;1.55;;
17771;SDS011;9010;32.624;-96.938;2022-08-19T07:01:59;1.98;;;1.95;;
17771;SDS011;9010;32.624;-96.938;2022-08-19T07:04:30;1.85;;;1.85;;
17771;SDS011;9010;32.624;-96.938;2022-08-19T07:07:00;1.10;;;1.10;;
17771;SDS011;9010;32.624;-96.938;2022-08-19T07:09:31;1.17;;;1.17;;
17771;SDS011;9010;32.624;-96.938;2022-08-19T07:12:01;1.38;;;1.35;;
17771;SDS011;9010;32.624;-96.938;2022-08-19T07:14:30;1.80;;;1.70;;
17771;SDS011;9010;32.624;-96.938;2022-08-19T07:17:01;1.20;;;1.20;;
17771;SDS011;9010;32.624;-96.938;2022-08-19T07:19:29;1.08;;;1.08;;
17771;SDS011;9010;32.624;-96.938;2022-08-19T07:21:57;1.75;;;1.75;;
17771;SDS011;9010;32.624;-96.938;2022-08-19T07:24:27;3.45;;;2.67;;
17771;SDS011;9010;32.624;-96.938;2022-08-19T07:26:57;2.22;;;2.20;;
17771;SDS011;9010;32.624;-96.938;2022-08-19T07:29:30;1.67;;;1.67;;
17771;SDS011;9010;32.624;-96.938;2022-08-19T07:31:59;1.88;;;1.80;;
17771;SDS011;9010;32.624;-96.938;2022-08-19T07:34:29;2.25;;;2.15;;
17771;SDS011;9010;32.624;-96.938;2022-08-19T07:37:02;2.22;;;2.15;;
17771;SDS011;9010;32.624;-96.938;2022-08-19T07:39:33;1.08;;;1.08;;
17771;SDS011;9010;32.624;-96.938;2022-08-19T07:42:04;1.45;;;1.45;;
17771;SDS011;9010;32.624;-96.938;2022-08-19T07:44:36;1.50;;;1.40;;
17771;SDS011;9010;32.624;-96.938;2022-08-19T07:47:04;1.55;;;1.55;;
17771;SDS011;9010;32.624;-96.938;2022-08-19T07:49:33;1.77;;;1.70;;
17771;SDS011;9010;32.624;-96.938;2022-08-19T07:52:03;2.25;;;2.15;;
17771;SDS011;9010;32.624;-96.938;2022-08-19T07:54:34;1.45;;;1.45;;
17771;SDS011;9010;32.624;-96.938;2022-08-19T07:57:07;2.08;;;1.98;;
17771;SDS011;9010;32.624;-96.938;2022-08-19T07:59:37;1.40;;;1.40;;
17771;SDS011;9010;32.624;-96.938;2022-08-19T08:02:05;1.27;;;1.27;;
17771;SDS011;9010;32.624;-96.938;2022-08-19T08:04:34;1.55;;;1.55;;
17771;SDS011;9010;32.624;-96.938;2022-08-19T08:07:20;2.17;;;1.70;;
17771;SDS011;9010;32.624;-96.938;2022-08-19T08:10:05;2.72;;;2.58;;
17771;SDS011;9010;32.624;-96.938;2022-08-19T08:12:37;2.53;;;2.42;;
17771;SDS011;9010;32.624;-96.938;2022-08-19T08:15:10;1.90;;;1.90;;
17771;SDS011;9010;32.624;-96.938;2022-08-19T08:17:42;1.02;;;1.02;;
17771;SDS011;9010;32.624;-96.938;2022-08-19T08:20:11;3.60;;;2.90;;
17771;SDS011;9010;32.624;-96.938;2022-08-19T08:22:42;2.45;;;2.35;;
17771;SDS011;9010;32.624;-96.938;2022-08-19T08:25:28;1.63;;;1.63;;
17771;SDS011;9010;32.624;-96.938;2022-08-19T08:27:58;2.72;;;2.63;;
17771;SDS011;9010;32.624;-96.938;2022-08-19T08:30:28;2.38;;;2.30;;
17771;SDS011;9010;32.624;-96.938;2022-08-19T08:32:58;1.90;;;1.80;;
17771;SDS011;9010;32.624;-96.938;2022-08-19T08:35:26;3.00;;;2.78;;
17771;SDS011;9010;32.624;-96.938;2022-08-19T08:37:55;2.38;;;2.30;;
17771;SDS011;9010;32.624;-96.938;2022-08-19T08:40:27;2.30;;;1.80;;
17771;SDS011;9010;32.624;-96.938;2022-08-19T08:42:57;2.75;;;2.65;;
17771;SDS011;9010;32.624;-96.938;2022-08-19T08:45:35;2.08;;;1.98;;
17771;SDS011;9010;32.624;-96.938;2022-08-19T08:48:12;1.67;;;1.67;;
17771;SDS011;9010;32.624;-96.938;2022-08-19T08:50:46;1.65;;;1.65;;
17771;SDS011;9010;32.624;-96.938;2022-08-19T08:53:18;2.60;;;2.50;;
17771;SDS011;9010;32.624;-96.938;2022-08-19T08:55:48;2.72;;;2.63;;
17771;SDS011;9010;32.624;-96.938;2022-08-19T08:58:17;1.48;;;1.48;;
17771;SDS011;9010;32.624;-96.938;2022-08-19T09:00:53;2.67;;;2.58;;
17771;SDS011;9010;32.624;-96.938;2022-08-19T09:03:22;1.35;;;1.35;;
17771;SDS011;9010;32.624;-96.938;2022-08-19T09:06:00;2.60;;;2.50;;
17771;SDS011;9010;32.624;-96.938;2022-08-19T09:08:38;10.68;;;2.42;;
17771;SDS011;9010;32.624;-96.938;2022-08-19T09:11:12;2.25;;;2.15;;
17771;SDS011;9010;32.624;-96.938;2022-08-19T09:13:48;2.38;;;2.28;;
17771;SDS011;9010;32.624;-96.938;2022-08-19T09:16:37;1.85;;;1.67;;
17771;SDS011;9010;32.624;-96.938;2022-08-19T09:19:06;2.95;;;2.85;;
17771;SDS011;9010;32.624;-96.938;2022-08-19T09:21:36;3.30;;;3.10;;
17771;SDS011;9010;32.624;-96.938;2022-08-19T09:24:06;3.17;;;2.65;;
17771;SDS011;9010;32.624;-96.938;2022-08-19T09:26:34;1.30;;;1.30;;
17771;SDS011;9010;32.624;-96.938;2022-08-19T09:29:02;4.32;;;3.92;;
17771;SDS011;9010;32.624;-96.938;2022-08-19T09:31:32;1.73;;;1.73;;
17771;SDS011;9010;32.624;-96.938;2022-08-19T09:34:02;2.50;;;2.40;;
17771;SDS011;9010;32.624;-96.938;2022-08-19T09:36:31;3.88;;;3.53;;
17771;SDS011;9010;32.624;-96.938;2022-08-19T09:39:02;5.50;;;4.20;;
17771;SDS011;9010;32.624;-96.938;2022-08-19T09:41:31;2.92;;;2.83;;
17771;SDS011;9010;32.624;-96.938;2022-08-19T09:43:59;2.55;;;2.45;;
17771;SDS011;9010;32.624;-96.938;2022-08-19T09:46:28;2.30;;;2.20;;
17771;SDS011;9010;32.624;-96.938;2022-08-19T09:48:58;2.75;;;2.60;;
17771;SDS011;9010;32.624;-96.938;2022-08-19T09:51:28;2.83;;;2.63;;
17771;SDS011;9010;32.624;-96.938;2022-08-19T09:53:58;3.20;;;3.03;;
17771;SDS011;9010;32.624;-96.938;2022-08-19T09:56:28;2.63;;;2.35;;
17771;SDS011;9010;32.624;-96.938;2022-08-19T09:58:57;2.80;;;2.70;;
17771;SDS011;9010;32.624;-96.938;2022-08-19T10:01:28;2.53;;;2.42;;
17771;SDS011;9010;32.624;-96.938;2022-08-19T10:03:58;2.50;;;2.40;;
17771;SDS011;9010;32.624;-96.938;2022-08-19T10:06:30;2.17;;;2.17;;
17771;SDS011;9010;32.624;-96.938;2022-08-19T10:08:59;2.58;;;2.47;;
17771;SDS011;9010;32.624;-96.938;2022-08-19T10:11:29;4.20;;;3.17;;
17771;SDS011;9010;32.624;-96.938;2022-08-19T10:13:57;4.13;;;3.90;;
17771;SDS011;9010;32.624;-96.938;2022-08-19T10:16:26;4.18;;;3.67;;
17771;SDS011;9010;32.624;-96.938;2022-08-19T10:18:54;4.75;;;3.90;;
17771;SDS011;9010;32.624;-96.938;2022-08-19T10:21:23;3.58;;;3.38;;
17771;SDS011;9010;32.624;-96.938;2022-08-19T10:23:55;3.58;;;3.33;;
17771;SDS011;9010;32.624;-96.938;2022-08-19T10:26:25;3.08;;;2.88;;
17771;SDS011;9010;32.624;-96.938;2022-08-19T10:28:55;2.95;;;2.75;;
17771;SDS011;9010;32.624;-96.938;2022-08-19T10:31:25;2.85;;;2.75;;
17771;SDS011;9010;32.624;-96.938;2022-08-19T10:33:54;1.88;;;1.88;;
17771;SDS011;9010;32.624;-96.938;2022-08-19T10:36:26;3.78;;;2.92;;
17771;SDS011;9010;32.624;-96.938;2022-08-19T10:38:58;3.03;;;2.85;;
17771;SDS011;9010;32.624;-96.938;2022-08-19T10:41:28;3.80;;;3.60;;
17771;SDS011;9010;32.624;-96.938;2022-08-19T10:43:59;2.03;;;2.03;;
17771;SDS011;9010;32.624;-96.938;2022-08-19T10:46:28;3.28;;;3.17;;
17771;SDS011;9010;32.624;-96.938;2022-08-19T10:48:58;5.07;;;3.75;;
17771;SDS011;9010;32.624;-96.938;2022-08-19T10:51:27;2.92;;;2.78;;
17771;SDS011;9010;32.624;-96.938;2022-08-19T10:54:13;5.07;;;4.68;;
17771;SDS011;9010;32.624;-96.938;2022-08-19T10:56:42;5.15;;;4.65;;
17771;SDS011;9010;32.624;-96.938;2022-08-19T10:59:19;3.08;;;2.80;;
17771;SDS011;9010;32.624;-96.938;2022-08-19T11:01:49;2.55;;;2.45;;
17771;SDS011;9010;32.624;-96.938;2022-08-19T11:04:18;3.50;;;3.30;;
17771;SDS011;9010;32.624;-96.938;2022-08-19T11:06:48;4.28;;;3.08;;
17771;SDS011;9010;32.624;-96.938;2022-08-19T11:09:18;3.70;;;3.42;;
17771;SDS011;9010;32.624;-96.938;2022-08-19T11:11:49;2.78;;;2.60;;
17771;SDS011;9010;32.624;-96.938;2022-08-19T11:14:19;4.13;;;3.65;;
17771;SDS011;9010;32.624;-96.938;2022-08-19T11:16:48;3.67;;;3.42;;
17771;SDS011;9010;32.624;-96.938;2022-08-19T11:19:16;5.00;;;4.70;;
17771;SDS011;9010;32.624;-96.938;2022-08-19T11:21:46;4.63;;;4.32;;
17771;SDS011;9010;32.624;-96.938;2022-08-19T11:24:16;3.60;;;3.42;;
17771;SDS011;9010;32.624;-96.938;2022-08-19T11:26:47;4.60;;;4.20;;
17771;SDS011;9010;32.624;-96.938;2022-08-19T11:29:18;5.78;;;4.40;;
17771;SDS011;9010;32.624;-96.938;2022-08-19T11:31:48;3.65;;;3.35;;
17771;SDS011;9010;32.624;-96.938;2022-08-19T11:34:18;7.63;;;4.65;;
17771;SDS011;9010;32.624;-96.938;2022-08-19T11:36:47;2.90;;;2.80;;
17771;SDS011;9010;32.624;-96.938;2022-08-19T11:39:20;4.75;;;4.38;;
17771;SDS011;9010;32.624;-96.938;2022-08-19T11:41:49;2.67;;;2.58;;
17771;SDS011;9010;32.624;-96.938;2022-08-19T11:44:18;2.50;;;2.40;;
17771;SDS011;9010;32.624;-96.938;2022-08-19T11:46:46;3.60;;;3.42;;
17771;SDS011;9010;32.624;-96.938;2022-08-19T11:49:14;3.50;;;3.20;;
17771;SDS011;9010;32.624;-96.938;2022-08-19T11:51:46;3.33;;;3.13;;
17771;SDS011;9010;32.624;-96.938;2022-08-19T11:54:16;3.42;;;2.65;;
17771;SDS011;9010;32.624;-96.938;2022-08-19T11:56:46;3.85;;;3.60;;
17771;SDS011;9010;32.624;-96.938;2022-08-19T11:59:14;2.83;;;2.60;;
17771;SDS011;9010;32.624;-96.938;2022-08-19T12:01:42;3.67;;;3.45;;
17771;SDS011;9010;32.624;-96.938;2022-08-19T12:04:11;2.58;;;2.47;;
17771;SDS011;9010;32.624;-96.938;2022-08-19T12:06:40;3.72;;;3.45;;
17771;SDS011;9010;32.624;-96.938;2022-08-19T12:09:09;5.30;;;5.00;;
17771;SDS011;9010;32.624;-96.938;2022-08-19T12:11:39;4.10;;;3.75;;
17771;SDS011;9010;32.624;-96.938;2022-08-19T12:14:09;3.47;;;3.28;;
17771;SDS011;9010;32.624;-96.938;2022-08-19T12:16:39;2.97;;;2.80;;
17771;SDS011;9010;32.624;-96.938;2022-08-19T12:19:08;3.83;;;3.63;;
17771;SDS011;9010;32.624;-96.938;2022-08-19T12:21:36;3.22;;;3.03;;
17771;SDS011;9010;32.624;-96.938;2022-08-19T12:24:05;2.60;;;2.50;;
17771;SDS011;9010;32.624;-96.938;2022-08-19T12:26:34;3.38;;;3.22;;
17771;SDS011;9010;32.624;-96.938;2022-08-19T12:29:04;2.65;;;2.55;;
17771;SDS011;9010;32.624;-96.938;2022-08-19T12:31:33;4.05;;;3.85;;
17771;SDS011;9010;32.624;-96.938;2022-08-19T12:34:02;2.53;;;2.42;;
17771;SDS011;9010;32.624;-96.938;2022-08-19T12:36:30;3.22;;;3.13;;
17771;SDS011;9010;32.624;-96.938;2022-08-19T12:38:58;3.85;;;3.65;;
17771;SDS011;9010;32.624;-96.938;2022-08-19T12:41:26;2.97;;;2.78;;
17771;SDS011;9010;32.624;-96.938;2022-08-19T12:43:55;2.63;;;2.45;;
17771;SDS011;9010;32.624;-96.938;2022-08-19T12:46:25;3.97;;;3.75;;
17771;SDS011;9010;32.624;-96.938;2022-08-19T12:48:53;2.70;;;2.60;;
17771;SDS011;9010;32.624;-96.938;2022-08-19T12:51:21;2.70;;;2.60;;
17771;SDS011;9010;32.624;-96.938;2022-08-19T12:53:50;3.03;;;2.63;;
17771;SDS011;9010;32.624;-96.938;2022-08-19T12:56:18;4.00;;;3.80;;
17771;SDS011;9010;32.624;-96.938;2022-08-19T12:58:47;5.65;;;4.97;;
17771;SDS011;9010;32.624;-96.938;2022-08-19T13:01:15;3.92;;;3.72;;
17771;SDS011;9010;32.624;-96.938;2022-08-19T13:03:46;3.25;;;3.03;;
17771;SDS011;9010;32.624;-96.938;2022-08-19T13:06:14;4.30;;;4.05;;
17771;SDS011;9010;32.624;-96.938;2022-08-19T13:08:43;5.82;;;5.30;;
17771;SDS011;9010;32.624;-96.938;2022-08-19T13:11:12;4.63;;;4.30;;
17771;SDS011;9010;32.624;-96.938;2022-08-19T13:13:43;7.18;;;5.32;;
17771;SDS011;9010;32.624;-96.938;2022-08-19T13:16:13;3.80;;;3.60;;
17771;SDS011;9010;32.624;-96.938;2022-08-19T13:18:42;3.90;;;3.70;;
17771;SDS011;9010;32.624;-96.938;2022-08-19T13:21:13;5.55;;;5.15;;
17771;SDS011;9010;32.624;-96.938;2022-08-19T13:23:42;4.10;;;3.25;;
17771;SDS011;9010;32.624;-96.938;2022-08-19T13:26:10;3.53;;;3.35;;
17771;SDS011;9010;32.624;-96.938;2022-08-19T13:28:40;3.67;;;3.53;;
17771;SDS011;9010;32.624;-96.938;2022-08-19T13:31:26;4.28;;;3.88;;
17771;SDS011;9010;32.624;-96.938;2022-08-19T13:34:15;3.33;;;3.08;;
17771;SDS011;9010;32.624;-96.938;2022-08-19T13:36:45;18.35;;;4.93;;
17771;SDS011;9010;32.624;-96.938;2022-08-19T13:39:13;4.13;;;3.92;;
17771;SDS011;9010;32.624;-96.938;2022-08-19T13:41:43;5.32;;;4.70;;
17771;SDS011;9010;32.624;-96.938;2022-08-19T13:44:13;4.13;;;3.92;;
17771;SDS011;9010;32.624;-96.938;2022-08-19T13:46:43;4.63;;;4.32;;
17771;SDS011;9010;32.624;-96.938;2022-08-19T13:49:12;3.33;;;3.22;;
17771;SDS011;9010;32.624;-96.938;2022-08-19T13:51:43;2.88;;;2.60;;
17771;SDS011;9010;32.624;-96.938;2022-08-19T13:54:11;3.42;;;3.33;;
17771;SDS011;9010;32.624;-96.938;2022-08-19T13:56:40;5.10;;;4.60;;
17771;SDS011;9010;32.624;-96.938;2022-08-19T13:59:09;6.97;;;4.53;;
17771;SDS011;9010;32.624;-96.938;2022-08-19T14:01:37;5.05;;;4.75;;
17771;SDS011;9010;32.624;-96.938;2022-08-19T14:04:07;3.95;;;3.67;;
17771;SDS011;9010;32.624;-96.938;2022-08-19T14:06:35;2.85;;;2.75;;
17771;SDS011;9010;32.624;-96.938;2022-08-19T14:09:05;3.28;;;3.08;;
17771;SDS011;9010;32.624;-96.938;2022-08-19T14:11:33;5.82;;;4.18;;
17771;SDS011;9010;32.624;-96.938;2022-08-19T14:14:02;4.30;;;3.30;;
17771;SDS011;9010;32.624;-96.938;2022-08-19T14:16:31;3.42;;;3.22;;
17771;SDS011;9010;32.624;-96.938;2022-08-19T14:18:59;3.78;;;3.58;;
17771;SDS011;9010;32.624;-96.938;2022-08-19T14:21:27;2.10;;;2.08;;
17771;SDS011;9010;32.624;-96.938;2022-08-19T14:23:55;3.40;;;3.20;;
17771;SDS011;9010;32.624;-96.938;2022-08-19T14:26:25;3.58;;;3.33;;
17771;SDS011;9010;32.624;-96.938;2022-08-19T14:28:54;3.30;;;3.13;;
17771;SDS011;9010;32.624;-96.938;2022-08-19T14:31:23;3.55;;;3.35;;
17771;SDS011;9010;32.624;-96.938;2022-08-19T14:33:51;13.65;;;4.30;;
17771;SDS011;9010;32.624;-96.938;2022-08-19T14:36:20;3.80;;;3.50;;
17771;SDS011;9010;32.624;-96.938;2022-08-19T14:38:48;3.80;;;2.88;;
17771;SDS011;9010;32.624;-96.938;2022-08-19T14:41:17;3.60;;;3.45;;
17771;SDS011;9010;32.624;-96.938;2022-08-19T14:43:49;5.38;;;3.20;;
17771;SDS011;9010;32.624;-96.938;2022-08-19T14:46:19;3.10;;;2.85;;
17771;SDS011;9010;32.624;-96.938;2022-08-19T14:48:50;8.75;;;4.60;;
17771;SDS011;9010;32.624;-96.938;2022-08-19T14:51:20;3.42;;;3.28;;